sensor_id;sensor_type;location;lat;lon;timestamp;P1;durP1;ratioP1;P2;durP2;ratioP2
9224;SDS011;4647;48.072;11.616;2024-03-02T00:01:38;19.03;;;17.00;;
9224;SDS011;4647;48.072;11.616;2024-03-02T00:04:07;14.87;;;13.47;;
9224;SDS011;4647;48.072;11.616;2024-03-02T00:06:36;16.63;;;15.00;;
9224;SDS011;4647;48.072;11.616;2024-03-02T00:09:07;13.40;;;12.00;;
9224;SDS011;4647;48.072;11.616;2024-03-02T00:11:38;14.23;;;12.83;;
9224;SDS011;4647;48.072;11.616;2024-03-02T00:14:07;14.40;;;13.03;;
9224;SDS011;4647;48.072;11.616;2024-03-02T00:16:35;12.60;;;11.50;;
9224;SDS011;4647;48.072;11.616;2024-03-02T00:19:04;14.30;;;13.00;;
9224;SDS011;4647;48.072;11.616;2024-03-02T00:21:34;15.03;;;13.53;;
9224;SDS011;4647;48.072;11.616;2024-03-02T00:24:08;14.03;;;12.77;;
9224;SDS011;4647;48.072;11.616;2024-03-02T00:26:48;14.87;;;13.53;;
9224;SDS011;4647;48.072;11.616;2024-03-02T00:29:16;16.13;;;14.63;;
9224;SDS011;4647;48.072;11.616;2024-03-02T00:31:46;17.43;;;15.73;;
9224;SDS011;4647;48.072;11.616;2024-03-02T00:34:14;14.03;;;12.83;;
9224;SDS011;4647;48.072;11.616;2024-03-02T00:36:44;16.77;;;15.27;;
9224;SDS011;4647;48.072;11.616;2024-03-02T00:39:16;18.17;;;16.33;;
9224;SDS011;4647;48.072;11.616;2024-03-02T00:41:45;16.37;;;14.90;;
9224;SDS011;4647;48.072;11.616;2024-03-02T00:44:13;14.00;;;12.70;;
9224;SDS011;4647;48.072;11.616;2024-03-02T00:46:44;15.80;;;14.30;;
9224;SDS011;4647;48.072;11.616;2024-03-02T00:49:17;16.63;;;15.13;;
9224;SDS011;4647;48.072;11.616;2024-03-02T00:51:49;15.73;;;14.33;;
9224;SDS011;4647;48.072;11.616;2024-03-02T00:54:21;15.37;;;14.07;;
9224;SDS011;4647;48.072;11.616;2024-03-02T00:56:50;18.83;;;17.13;;
9224;SDS011;4647;48.072;11.616;2024-03-02T00:59:20;15.13;;;13.70;;
9224;SDS011;4647;48.072;11.616;2024-03-02T01:01:49;15.37;;;13.97;;
9224;SDS011;4647;48.072;11.616;2024-03-02T01:04:17;18.03;;;16.23;;
9224;SDS011;4647;48.072;11.616;2024-03-02T01:06:46;15.73;;;14.23;;
9224;SDS011;4647;48.072;11.616;2024-03-02T01:09:14;15.27;;;14.03;;
9224;SDS011;4647;48.072;11.616;2024-03-02T01:11:45;15.43;;;14.13;;
9224;SDS011;4647;48.072;11.616;2024-03-02T01:14:14;15.07;;;13.77;;
9224;SDS011;4647;48.072;11.616;2024-03-02T01:16:42;15.53;;;14.17;;
9224;SDS011;4647;48.072;11.616;2024-03-02T01:19:10;13.77;;;12.67;;
9224;SDS011;4647;48.072;11.616;2024-03-02T01:21:40;14.13;;;12.93;;
9224;SDS011;4647;48.072;11.616;2024-03-02T01:24:08;14.70;;;13.40;;
9224;SDS011;4647;48.072;11.616;2024-03-02T01:26:38;13.07;;;11.87;;
9224;SDS011;4647;48.072;11.616;2024-03-02T01:29:09;12.30;;;11.30;;
9224;SDS011;4647;48.072;11.616;2024-03-02T01:31:37;12.17;;;11.17;;
9224;SDS011;4647;48.072;11.616;2024-03-02T01:34:07;13.13;;;11.83;;
9224;SDS011;4647;48.072;11.616;2024-03-02T01:36:35;11.27;;;10.27;;
9224;SDS011;4647;48.072;11.616;2024-03-02T01:39:04;12.70;;;11.03;;
9224;SDS011;4647;48.072;11.616;2024-03-02T01:41:34;10.70;;;9.63;;
9224;SDS011;4647;48.072;11.616;2024-03-02T01:44:03;11.67;;;10.70;;
9224;SDS011;4647;48.072;11.616;2024-03-02T01:46:34;11.27;;;10.27;;
9224;SDS011;4647;48.072;11.616;2024-03-02T01:49:03;11.20;;;10.30;;
9224;SDS011;4647;48.072;11.616;2024-03-02T01:51:31;10.90;;;10.00;;
9224;SDS011;4647;48.072;11.616;2024-03-02T01:54:00;11.03;;;10.13;;
9224;SDS011;4647;48.072;11.616;2024-03-02T01:56:28;11.80;;;10.80;;
9224;SDS011;4647;48.072;11.616;2024-03-02T01:58:57;12.17;;;11.07;;
9224;SDS011;4647;48.072;11.616;2024-03-02T02:01:26;10.90;;;9.90;;
9224;SDS011;4647;48.072;11.616;2024-03-02T02:03:57;12.23;;;11.13;;
9224;SDS011;4647;48.072;11.616;2024-03-02T02:06:25;12.57;;;11.47;;
9224;SDS011;4647;48.072;11.616;2024-03-02T02:08:54;11.53;;;10.53;;
9224;SDS011;4647;48.072;11.616;2024-03-02T02:11:20;12.47;;;11.27;;
9224;SDS011;4647;48.072;11.616;2024-03-02T02:13:48;12.07;;;11.07;;
9224;SDS011;4647;48.072;11.616;2024-03-02T02:16:17;12.87;;;11.87;;
9224;SDS011;4647;48.072;11.616;2024-03-02T02:18:45;13.80;;;12.67;;
9224;SDS011;4647;48.072;11.616;2024-03-02T02:21:16;15.27;;;13.87;;
9224;SDS011;4647;48.072;11.616;2024-03-02T02:23:47;13.00;;;11.90;;
9224;SDS011;4647;48.072;11.616;2024-03-02T02:26:15;14.47;;;13.13;;
9224;SDS011;4647;48.072;11.616;2024-03-02T02:28:44;12.90;;;11.80;;
9224;SDS011;4647;48.072;11.616;2024-03-02T02:31:13;13.70;;;12.40;;
9224;SDS011;4647;48.072;11.616;2024-03-02T02:33:41;12.47;;;11.47;;
9224;SDS011;4647;48.072;11.616;2024-03-02T02:36:10;16.27;;;14.83;;
9224;SDS011;4647;48.072;11.616;2024-03-02T02:38:38;13.30;;;12.20;;
9224;SDS011;4647;48.072;11.616;2024-03-02T02:41:12;14.37;;;13.10;;
9224;SDS011;4647;48.072;11.616;2024-03-02T02:43:40;15.03;;;13.80;;
9224;SDS011;4647;48.072;11.616;2024-03-02T02:46:09;15.83;;;14.43;;
9224;SDS011;4647;48.072;11.616;2024-03-02T02:48:37;15.50;;;14.07;;
9224;SDS011;4647;48.072;11.616;2024-03-02T02:51:06;12.57;;;11.57;;
9224;SDS011;4647;48.072;11.616;2024-03-02T02:53:34;14.43;;;13.13;;
9224;SDS011;4647;48.072;11.616;2024-03-02T02:56:05;12.60;;;11.50;;
9224;SDS011;4647;48.072;11.616;2024-03-02T02:58:36;16.17;;;14.67;;
9224;SDS011;4647;48.072;11.616;2024-03-02T03:01:05;14.00;;;12.70;;
9224;SDS011;4647;48.072;11.616;2024-03-02T03:03:33;13.10;;;11.90;;
9224;SDS011;4647;48.072;11.616;2024-03-02T03:06:01;13.13;;;11.87;;
9224;SDS011;4647;48.072;11.616;2024-03-02T03:08:30;12.73;;;11.63;;
9224;SDS011;4647;48.072;11.616;2024-03-02T03:10:59;13.67;;;12.47;;
9224;SDS011;4647;48.072;11.616;2024-03-02T03:13:27;13.83;;;12.57;;
9224;SDS011;4647;48.072;11.616;2024-03-02T03:15:58;12.37;;;11.33;;
9224;SDS011;4647;48.072;11.616;2024-03-02T03:18:27;12.97;;;11.57;;
9224;SDS011;4647;48.072;11.616;2024-03-02T03:20:55;12.93;;;11.73;;
9224;SDS011;4647;48.072;11.616;2024-03-02T03:23:23;14.23;;;11.80;;
9224;SDS011;4647;48.072;11.616;2024-03-02T03:25:52;13.27;;;12.17;;
9224;SDS011;4647;48.072;11.616;2024-03-02T03:28:21;14.43;;;13.17;;
9224;SDS011;4647;48.072;11.616;2024-03-02T03:30:49;13.20;;;12.00;;
9224;SDS011;4647;48.072;11.616;2024-03-02T03:33:20;14.10;;;12.70;;
9224;SDS011;4647;48.072;11.616;2024-03-02T03:35:49;14.40;;;13.20;;
9224;SDS011;4647;48.072;11.616;2024-03-02T03:38:18;14.93;;;13.53;;
9224;SDS011;4647;48.072;11.616;2024-03-02T03:40:47;14.40;;;13.17;;
9224;SDS011;4647;48.072;11.616;2024-03-02T03:43:15;14.80;;;13.50;;
9224;SDS011;4647;48.072;11.616;2024-03-02T03:45:44;15.67;;;14.27;;
9224;SDS011;4647;48.072;11.616;2024-03-02T03:48:12;14.97;;;13.67;;
9224;SDS011;4647;48.072;11.616;2024-03-02T03:50:43;14.73;;;13.33;;
9224;SDS011;4647;48.072;11.616;2024-03-02T03:53:11;13.57;;;12.33;;
9224;SDS011;4647;48.072;11.616;2024-03-02T03:55:40;14.03;;;12.73;;
9224;SDS011;4647;48.072;11.616;2024-03-02T03:58:08;15.23;;;13.83;;
9224;SDS011;4647;48.072;11.616;2024-03-02T04:00:37;14.13;;;12.83;;
9224;SDS011;4647;48.072;11.616;2024-03-02T04:03:05;13.30;;;12.17;;
9224;SDS011;4647;48.072;11.616;2024-03-02T04:05:33;13.70;;;12.50;;
9224;SDS011;4647;48.072;11.616;2024-03-02T04:08:05;13.60;;;12.33;;
9224;SDS011;4647;48.072;11.616;2024-03-02T04:10:33;13.43;;;12.17;;
9224;SDS011;4647;48.072;11.616;2024-03-02T04:13:02;13.43;;;12.23;;
9224;SDS011;4647;48.072;11.616;2024-03-02T04:15:30;14.37;;;13.07;;
9224;SDS011;4647;48.072;11.616;2024-03-02T04:17:59;14.50;;;13.10;;
9224;SDS011;4647;48.072;11.616;2024-03-02T04:20:28;13.50;;;12.30;;
9224;SDS011;4647;48.072;11.616;2024-03-02T04:22:57;14.30;;;13.00;;
9224;SDS011;4647;48.072;11.616;2024-03-02T04:25:28;15.03;;;13.73;;
9224;SDS011;4647;48.072;11.616;2024-03-02T04:27:56;13.93;;;12.73;;
9224;SDS011;4647;48.072;11.616;2024-03-02T04:30:25;13.70;;;12.50;;
9224;SDS011;4647;48.072;11.616;2024-03-02T04:32:53;15.00;;;13.60;;
9224;SDS011;4647;48.072;11.616;2024-03-02T04:35:22;13.70;;;12.50;;
9224;SDS011;4647;48.072;11.616;2024-03-02T04:37:50;14.97;;;13.60;;
9224;SDS011;4647;48.072;11.616;2024-03-02T04:40:19;15.63;;;14.17;;
9224;SDS011;4647;48.072;11.616;2024-03-02T04:42:49;16.73;;;15.23;;
9224;SDS011;4647;48.072;11.616;2024-03-02T04:45:18;14.97;;;13.63;;
9224;SDS011;4647;48.072;11.616;2024-03-02T04:47:46;16.27;;;14.73;;
9224;SDS011;4647;48.072;11.616;2024-03-02T04:50:15;16.43;;;15.03;;
9224;SDS011;4647;48.072;11.616;2024-03-02T04:52:44;17.00;;;15.40;;
9224;SDS011;4647;48.072;11.616;2024-03-02T04:55:12;15.67;;;14.27;;
9224;SDS011;4647;48.072;11.616;2024-03-02T04:58:15;18.20;;;16.50;;
9224;SDS011;4647;48.072;11.616;2024-03-02T05:00:43;15.93;;;14.43;;
9224;SDS011;4647;48.072;11.616;2024-03-02T05:03:12;16.47;;;14.77;;
9224;SDS011;4647;48.072;11.616;2024-03-02T05:05:40;15.83;;;14.33;;
9224;SDS011;4647;48.072;11.616;2024-03-02T05:08:09;14.80;;;13.37;;
9224;SDS011;4647;48.072;11.616;2024-03-02T05:10:38;16.23;;;14.73;;
9224;SDS011;4647;48.072;11.616;2024-03-02T05:13:06;18.97;;;16.97;;
9224;SDS011;4647;48.072;11.616;2024-03-02T05:15:35;15.00;;;13.60;;
9224;SDS011;4647;48.072;11.616;2024-03-02T05:18:03;16.00;;;14.60;;
9224;SDS011;4647;48.072;11.616;2024-03-02T05:20:33;17.40;;;15.80;;
9224;SDS011;4647;48.072;11.616;2024-03-02T05:23:01;19.77;;;17.87;;
9224;SDS011;4647;48.072;11.616;2024-03-02T05:25:30;17.83;;;15.97;;
9224;SDS011;4647;48.072;11.616;2024-03-02T05:28:00;18.27;;;16.50;;
9224;SDS011;4647;48.072;11.616;2024-03-02T05:30:28;18.23;;;16.53;;
9224;SDS011;4647;48.072;11.616;2024-03-02T05:33:00;17.57;;;15.97;;
9224;SDS011;4647;48.072;11.616;2024-03-02T05:35:28;17.67;;;16.17;;
9224;SDS011;4647;48.072;11.616;2024-03-02T05:37:58;17.17;;;15.57;;
9224;SDS011;4647;48.072;11.616;2024-03-02T05:40:26;17.40;;;15.90;;
9224;SDS011;4647;48.072;11.616;2024-03-02T05:42:55;18.07;;;16.47;;
9224;SDS011;4647;48.072;11.616;2024-03-02T05:45:23;17.70;;;16.10;;
9224;SDS011;4647;48.072;11.616;2024-03-02T05:47:51;19.07;;;17.27;;
9224;SDS011;4647;48.072;11.616;2024-03-02T05:50:22;18.10;;;16.53;;
9224;SDS011;4647;48.072;11.616;2024-03-02T05:52:51;17.67;;;15.97;;
9224;SDS011;4647;48.072;11.616;2024-03-02T05:55:21;17.77;;;16.07;;
9224;SDS011;4647;48.072;11.616;2024-03-02T05:57:49;19.30;;;17.37;;
9224;SDS011;4647;48.072;11.616;2024-03-02T06:00:36;24.40;;;22.03;;
9224;SDS011;4647;48.072;11.616;2024-03-02T06:03:05;21.80;;;19.80;;
9224;SDS011;4647;48.072;11.616;2024-03-02T06:05:37;22.30;;;19.97;;
9224;SDS011;4647;48.072;11.616;2024-03-02T06:08:06;21.60;;;19.40;;
9224;SDS011;4647;48.072;11.616;2024-03-02T06:10:34;21.07;;;18.93;;
9224;SDS011;4647;48.072;11.616;2024-03-02T06:13:03;22.30;;;20.20;;
9224;SDS011;4647;48.072;11.616;2024-03-02T06:15:31;23.00;;;20.60;;
9224;SDS011;4647;48.072;11.616;2024-03-02T06:18:01;24.37;;;19.83;;
9224;SDS011;4647;48.072;11.616;2024-03-02T06:20:29;22.63;;;20.53;;
9224;SDS011;4647;48.072;11.616;2024-03-02T06:23:01;21.90;;;19.80;;
9224;SDS011;4647;48.072;11.616;2024-03-02T06:25:29;23.97;;;21.43;;
9224;SDS011;4647;48.072;11.616;2024-03-02T06:27:58;24.80;;;22.30;;
9224;SDS011;4647;48.072;11.616;2024-03-02T06:30:26;21.67;;;19.57;;
9224;SDS011;4647;48.072;11.616;2024-03-02T06:32:54;24.70;;;22.27;;
9224;SDS011;4647;48.072;11.616;2024-03-02T06:35:23;24.20;;;21.70;;
9224;SDS011;4647;48.072;11.616;2024-03-02T06:37:51;22.37;;;20.17;;
9224;SDS011;4647;48.072;11.616;2024-03-02T06:40:22;21.70;;;19.60;;
9224;SDS011;4647;48.072;11.616;2024-03-02T06:42:51;22.23;;;20.13;;
9224;SDS011;4647;48.072;11.616;2024-03-02T06:45:19;22.93;;;20.73;;
9224;SDS011;4647;48.072;11.616;2024-03-02T06:47:47;21.30;;;19.30;;
9224;SDS011;4647;48.072;11.616;2024-03-02T06:50:16;26.07;;;21.90;;
9224;SDS011;4647;48.072;11.616;2024-03-02T06:52:44;27.17;;;24.33;;
9224;SDS011;4647;48.072;11.616;2024-03-02T06:55:12;33.67;;;27.93;;
9224;SDS011;4647;48.072;11.616;2024-03-02T06:57:43;20.93;;;19.03;;
9224;SDS011;4647;48.072;11.616;2024-03-02T07:00:12;19.93;;;18.07;;
9224;SDS011;4647;48.072;11.616;2024-03-02T07:02:43;21.83;;;19.67;;
9224;SDS011;4647;48.072;11.616;2024-03-02T07:05:11;22.03;;;19.93;;
9224;SDS011;4647;48.072;11.616;2024-03-02T07:07:40;20.97;;;18.77;;
9224;SDS011;4647;48.072;11.616;2024-03-02T07:10:09;20.27;;;18.20;;
9224;SDS011;4647;48.072;11.616;2024-03-02T07:12:37;20.70;;;18.70;;
9224;SDS011;4647;48.072;11.616;2024-03-02T07:15:09;20.00;;;18.20;;
9224;SDS011;4647;48.072;11.616;2024-03-02T07:18:02;21.70;;;19.60;;
9224;SDS011;4647;48.072;11.616;2024-03-02T07:20:30;23.70;;;21.40;;
9224;SDS011;4647;48.072;11.616;2024-03-02T07:22:59;24.93;;;22.50;;
9224;SDS011;4647;48.072;11.616;2024-03-02T07:25:27;22.63;;;20.37;;
9224;SDS011;4647;48.072;11.616;2024-03-02T07:27:55;20.57;;;18.57;;
9224;SDS011;4647;48.072;11.616;2024-03-02T07:30:27;20.47;;;18.67;;
9224;SDS011;4647;48.072;11.616;2024-03-02T07:32:55;20.37;;;18.27;;
9224;SDS011;4647;48.072;11.616;2024-03-02T07:35:23;20.37;;;18.37;;
9224;SDS011;4647;48.072;11.616;2024-03-02T07:37:52;20.27;;;18.37;;
9224;SDS011;4647;48.072;11.616;2024-03-02T07:40:21;20.50;;;18.57;;
9224;SDS011;4647;48.072;11.616;2024-03-02T07:42:50;20.50;;;18.40;;
9224;SDS011;4647;48.072;11.616;2024-03-02T07:45:18;23.67;;;19.90;;
9224;SDS011;4647;48.072;11.616;2024-03-02T07:47:49;22.70;;;20.40;;
9224;SDS011;4647;48.072;11.616;2024-03-02T07:50:18;22.17;;;20.07;;
9224;SDS011;4647;48.072;11.616;2024-03-02T07:52:47;20.90;;;18.90;;
9224;SDS011;4647;48.072;11.616;2024-03-02T07:55:15;23.73;;;21.33;;
9224;SDS011;4647;48.072;11.616;2024-03-02T07:57:44;21.20;;;19.23;;
9224;SDS011;4647;48.072;11.616;2024-03-02T08:00:13;21.93;;;19.73;;
9224;SDS011;4647;48.072;11.616;2024-03-02T08:02:41;21.87;;;19.77;;
9224;SDS011;4647;48.072;11.616;2024-03-02T08:05:12;25.00;;;22.37;;
9224;SDS011;4647;48.072;11.616;2024-03-02T08:07:41;24.90;;;22.50;;
9224;SDS011;4647;48.072;11.616;2024-03-02T08:10:23;33.20;;;27.53;;
9224;SDS011;4647;48.072;11.616;2024-03-02T08:12:51;22.47;;;20.27;;
9224;SDS011;4647;48.072;11.616;2024-03-02T08:15:19;19.17;;;17.37;;
9224;SDS011;4647;48.072;11.616;2024-03-02T08:17:48;17.10;;;15.37;;
9224;SDS011;4647;48.072;11.616;2024-03-02T08:20:16;17.60;;;16.00;;
9224;SDS011;4647;48.072;11.616;2024-03-02T08:22:45;17.47;;;15.67;;
9224;SDS011;4647;48.072;11.616;2024-03-02T08:25:14;19.07;;;17.27;;
9224;SDS011;4647;48.072;11.616;2024-03-02T08:27:45;17.93;;;16.33;;
9224;SDS011;4647;48.072;11.616;2024-03-02T08:30:14;19.00;;;17.10;;
9224;SDS011;4647;48.072;11.616;2024-03-02T08:32:43;19.83;;;17.93;;
9224;SDS011;4647;48.072;11.616;2024-03-02T08:35:12;23.13;;;20.83;;
9224;SDS011;4647;48.072;11.616;2024-03-02T08:37:42;24.97;;;22.37;;
9224;SDS011;4647;48.072;11.616;2024-03-02T08:40:11;22.03;;;19.83;;
9224;SDS011;4647;48.072;11.616;2024-03-02T08:42:39;23.40;;;21.03;;
9224;SDS011;4647;48.072;11.616;2024-03-02T08:45:11;20.47;;;18.53;;
9224;SDS011;4647;48.072;11.616;2024-03-02T08:47:39;18.30;;;16.57;;
9224;SDS011;4647;48.072;11.616;2024-03-02T08:50:08;18.20;;;16.33;;
9224;SDS011;4647;48.072;11.616;2024-03-02T08:52:37;18.97;;;17.13;;
9224;SDS011;4647;48.072;11.616;2024-03-02T08:55:05;17.70;;;16.00;;
9224;SDS011;4647;48.072;11.616;2024-03-02T08:57:36;17.37;;;15.73;;
9224;SDS011;4647;48.072;11.616;2024-03-02T09:00:05;19.10;;;17.13;;
9224;SDS011;4647;48.072;11.616;2024-03-02T09:02:37;19.43;;;17.57;;
9224;SDS011;4647;48.072;11.616;2024-03-02T09:05:06;18.73;;;16.93;;
9224;SDS011;4647;48.072;11.616;2024-03-02T09:07:35;17.77;;;16.00;;
9224;SDS011;4647;48.072;11.616;2024-03-02T09:10:04;18.77;;;16.97;;
9224;SDS011;4647;48.072;11.616;2024-03-02T09:12:33;17.37;;;15.83;;
9224;SDS011;4647;48.072;11.616;2024-03-02T09:15:03;18.53;;;16.63;;
9224;SDS011;4647;48.072;11.616;2024-03-02T09:17:32;23.07;;;20.67;;
9224;SDS011;4647;48.072;11.616;2024-03-02T09:20:03;24.37;;;21.77;;
9224;SDS011;4647;48.072;11.616;2024-03-02T09:22:33;18.10;;;16.20;;
9224;SDS011;4647;48.072;11.616;2024-03-02T09:25:01;22.27;;;19.33;;
9224;SDS011;4647;48.072;11.616;2024-03-02T09:27:29;15.53;;;14.13;;
9224;SDS011;4647;48.072;11.616;2024-03-02T09:29:58;17.67;;;15.87;;
9224;SDS011;4647;48.072;11.616;2024-03-02T09:32:26;15.53;;;14.00;;
9224;SDS011;4647;48.072;11.616;2024-03-02T09:34:54;13.87;;;12.67;;
9224;SDS011;4647;48.072;11.616;2024-03-02T09:37:26;13.30;;;12.00;;
9224;SDS011;4647;48.072;11.616;2024-03-02T09:39:54;13.90;;;12.27;;
9224;SDS011;4647;48.072;11.616;2024-03-02T09:42:23;13.70;;;12.30;;
9224;SDS011;4647;48.072;11.616;2024-03-02T09:44:52;12.93;;;11.63;;
9224;SDS011;4647;48.072;11.616;2024-03-02T09:47:21;11.90;;;10.80;;
9224;SDS011;4647;48.072;11.616;2024-03-02T09:49:49;11.20;;;10.20;;
9224;SDS011;4647;48.072;11.616;2024-03-02T09:52:18;9.97;;;9.00;;
9224;SDS011;4647;48.072;11.616;2024-03-02T09:54:49;9.60;;;8.70;;
9224;SDS011;4647;48.072;11.616;2024-03-02T09:57:18;9.40;;;8.43;;
9224;SDS011;4647;48.072;11.616;2024-03-02T09:59:46;8.80;;;7.37;;
9224;SDS011;4647;48.072;11.616;2024-03-02T10:02:14;8.90;;;8.10;;
9224;SDS011;4647;48.072;11.616;2024-03-02T10:04:43;10.53;;;8.23;;
9224;SDS011;4647;48.072;11.616;2024-03-02T10:07:12;9.30;;;8.40;;
9224;SDS011;4647;48.072;11.616;2024-03-02T10:09:42;9.10;;;8.20;;
9224;SDS011;4647;48.072;11.616;2024-03-02T10:12:14;8.93;;;8.13;;
9224;SDS011;4647;48.072;11.616;2024-03-02T10:14:44;10.87;;;9.87;;
9224;SDS011;4647;48.072;11.616;2024-03-02T10:17:13;12.43;;;11.13;;
9224;SDS011;4647;48.072;11.616;2024-03-02T10:19:45;12.87;;;11.67;;
9224;SDS011;4647;48.072;11.616;2024-03-02T10:22:13;12.13;;;10.93;;
9224;SDS011;4647;48.072;11.616;2024-03-02T10:24:42;12.17;;;11.00;;
9224;SDS011;4647;48.072;11.616;2024-03-02T10:27:17;12.23;;;11.03;;
9224;SDS011;4647;48.072;11.616;2024-03-02T10:29:46;12.87;;;11.57;;
9224;SDS011;4647;48.072;11.616;2024-03-02T10:32:15;12.07;;;10.87;;
9224;SDS011;4647;48.072;11.616;2024-03-02T10:34:44;13.00;;;11.60;;
9224;SDS011;4647;48.072;11.616;2024-03-02T10:37:14;13.30;;;11.97;;
9224;SDS011;4647;48.072;11.616;2024-03-02T10:39:43;16.67;;;14.03;;
9224;SDS011;4647;48.072;11.616;2024-03-02T10:42:16;13.80;;;12.33;;
9224;SDS011;4647;48.072;11.616;2024-03-02T10:44:47;11.63;;;10.53;;
9224;SDS011;4647;48.072;11.616;2024-03-02T10:47:17;12.87;;;11.00;;
9224;SDS011;4647;48.072;11.616;2024-03-02T10:49:47;13.03;;;11.53;;
9224;SDS011;4647;48.072;11.616;2024-03-02T10:52:19;12.20;;;10.90;;
9224;SDS011;4647;48.072;11.616;2024-03-02T10:54:48;11.90;;;10.73;;
9224;SDS011;4647;48.072;11.616;2024-03-02T10:57:19;12.53;;;11.03;;
9224;SDS011;4647;48.072;11.616;2024-03-02T10:59:51;14.03;;;12.53;;
9224;SDS011;4647;48.072;11.616;2024-03-02T11:02:21;14.23;;;11.90;;
9224;SDS011;4647;48.072;11.616;2024-03-02T11:04:50;14.40;;;11.70;;
9224;SDS011;4647;48.072;11.616;2024-03-02T11:07:23;15.20;;;11.73;;
9224;SDS011;4647;48.072;11.616;2024-03-02T11:09:55;14.13;;;11.83;;
9224;SDS011;4647;48.072;11.616;2024-03-02T11:12:36;12.57;;;11.30;;
9224;SDS011;4647;48.072;11.616;2024-03-02T11:15:10;13.43;;;11.87;;
9224;SDS011;4647;48.072;11.616;2024-03-02T11:17:44;15.17;;;12.33;;
9224;SDS011;4647;48.072;11.616;2024-03-02T11:20:14;14.57;;;13.07;;
9224;SDS011;4647;48.072;11.616;2024-03-02T11:22:44;14.83;;;13.33;;
9224;SDS011;4647;48.072;11.616;2024-03-02T11:25:22;15.83;;;13.80;;
9224;SDS011;4647;48.072;11.616;2024-03-02T11:28:04;14.63;;;13.10;;
9224;SDS011;4647;48.072;11.616;2024-03-02T11:33:16;15.63;;;13.90;;
9224;SDS011;4647;48.072;11.616;2024-03-02T11:35:52;15.87;;;13.13;;
9224;SDS011;4647;48.072;11.616;2024-03-02T11:38:21;15.93;;;12.90;;
9224;SDS011;4647;48.072;11.616;2024-03-02T11:40:50;12.63;;;11.23;;
9224;SDS011;4647;48.072;11.616;2024-03-02T11:43:21;16.10;;;12.87;;
9224;SDS011;4647;48.072;11.616;2024-03-02T11:45:56;12.83;;;10.10;;
9224;SDS011;4647;48.072;11.616;2024-03-02T11:48:25;11.67;;;9.83;;
9224;SDS011;4647;48.072;11.616;2024-03-02T11:50:53;10.90;;;9.73;;
9224;SDS011;4647;48.072;11.616;2024-03-02T11:53:27;12.03;;;9.93;;
9224;SDS011;4647;48.072;11.616;2024-03-02T11:55:57;11.27;;;10.07;;
9224;SDS011;4647;48.072;11.616;2024-03-02T11:58:29;10.73;;;9.63;;
9224;SDS011;4647;48.072;11.616;2024-03-02T12:00:58;10.70;;;9.70;;
9224;SDS011;4647;48.072;11.616;2024-03-02T12:03:27;11.73;;;9.13;;
9224;SDS011;4647;48.072;11.616;2024-03-02T12:05:56;11.40;;;9.10;;
9224;SDS011;4647;48.072;11.616;2024-03-02T12:08:24;10.63;;;9.53;;
9224;SDS011;4647;48.072;11.616;2024-03-02T12:10:56;11.53;;;9.07;;
9224;SDS011;4647;48.072;11.616;2024-03-02T12:13:25;9.70;;;8.70;;
9224;SDS011;4647;48.072;11.616;2024-03-02T12:15:56;9.53;;;8.50;;
9224;SDS011;4647;48.072;11.616;2024-03-02T12:18:25;10.10;;;8.60;;
9224;SDS011;4647;48.072;11.616;2024-03-02T12:20:51;9.80;;;8.80;;
9224;SDS011;4647;48.072;11.616;2024-03-02T12:23:22;9.83;;;8.70;;
9224;SDS011;4647;48.072;11.616;2024-03-02T12:25:50;9.73;;;7.90;;
9224;SDS011;4647;48.072;11.616;2024-03-02T12:28:19;9.30;;;8.30;;
9224;SDS011;4647;48.072;11.616;2024-03-02T12:30:47;10.70;;;8.03;;
9224;SDS011;4647;48.072;11.616;2024-03-02T12:33:19;8.70;;;7.80;;
9224;SDS011;4647;48.072;11.616;2024-03-02T12:35:48;10.77;;;8.40;;
9224;SDS011;4647;48.072;11.616;2024-03-02T12:38:17;11.20;;;8.70;;
9224;SDS011;4647;48.072;11.616;2024-03-02T12:40:47;8.57;;;7.73;;
9224;SDS011;4647;48.072;11.616;2024-03-02T12:43:16;9.37;;;7.77;;
9224;SDS011;4647;48.072;11.616;2024-03-02T12:45:41;9.33;;;8.43;;
9224;SDS011;4647;48.072;11.616;2024-03-02T12:48:10;11.60;;;8.77;;
9224;SDS011;4647;48.072;11.616;2024-03-02T12:50:41;15.67;;;9.70;;
9224;SDS011;4647;48.072;11.616;2024-03-02T12:53:13;12.10;;;9.20;;
9224;SDS011;4647;48.072;11.616;2024-03-02T12:55:42;11.97;;;9.17;;
9224;SDS011;4647;48.072;11.616;2024-03-02T12:58:16;10.27;;;8.23;;
9224;SDS011;4647;48.072;11.616;2024-03-02T13:00:45;9.00;;;8.10;;
9224;SDS011;4647;48.072;11.616;2024-03-02T13:03:13;9.10;;;8.20;;
9224;SDS011;4647;48.072;11.616;2024-03-02T13:05:50;9.63;;;7.83;;
9224;SDS011;4647;48.072;11.616;2024-03-02T13:08:19;8.47;;;7.67;;
9224;SDS011;4647;48.072;11.616;2024-03-02T13:10:48;9.23;;;8.17;;
9224;SDS011;4647;48.072;11.616;2024-03-02T13:13:16;8.80;;;7.90;;
9224;SDS011;4647;48.072;11.616;2024-03-02T13:15:45;12.83;;;8.07;;
9224;SDS011;4647;48.072;11.616;2024-03-02T13:18:13;8.87;;;7.70;;
9224;SDS011;4647;48.072;11.616;2024-03-02T13:20:42;8.93;;;7.53;;
9224;SDS011;4647;48.072;11.616;2024-03-02T13:23:13;8.73;;;7.77;;
9224;SDS011;4647;48.072;11.616;2024-03-02T13:25:41;10.67;;;9.57;;
9224;SDS011;4647;48.072;11.616;2024-03-02T13:28:12;9.50;;;8.40;;
9224;SDS011;4647;48.072;11.616;2024-03-02T13:30:41;8.83;;;7.43;;
9224;SDS011;4647;48.072;11.616;2024-03-02T13:33:10;7.10;;;6.40;;
9224;SDS011;4647;48.072;11.616;2024-03-02T13:35:40;8.37;;;6.70;;
9224;SDS011;4647;48.072;11.616;2024-03-02T13:38:08;9.93;;;8.07;;
9224;SDS011;4647;48.072;11.616;2024-03-02T13:40:39;10.10;;;8.67;;
9224;SDS011;4647;48.072;11.616;2024-03-02T13:43:08;10.23;;;8.77;;
9224;SDS011;4647;48.072;11.616;2024-03-02T13:45:36;11.83;;;10.60;;
9224;SDS011;4647;48.072;11.616;2024-03-02T13:48:05;13.30;;;11.93;;
9224;SDS011;4647;48.072;11.616;2024-03-02T13:50:34;13.13;;;11.73;;
9224;SDS011;4647;48.072;11.616;2024-03-02T13:53:03;15.00;;;13.40;;
9224;SDS011;4647;48.072;11.616;2024-03-02T13:55:32;13.20;;;11.80;;
9224;SDS011;4647;48.072;11.616;2024-03-02T13:58:03;14.23;;;12.53;;
9224;SDS011;4647;48.072;11.616;2024-03-02T14:00:34;13.90;;;11.33;;
9224;SDS011;4647;48.072;11.616;2024-03-02T14:03:02;12.07;;;10.60;;
9224;SDS011;4647;48.072;11.616;2024-03-02T14:05:31;12.87;;;11.57;;
9224;SDS011;4647;48.072;11.616;2024-03-02T14:08:00;13.33;;;11.80;;
9224;SDS011;4647;48.072;11.616;2024-03-02T14:10:29;14.30;;;11.67;;
9224;SDS011;4647;48.072;11.616;2024-03-02T14:12:57;10.63;;;9.63;;
9224;SDS011;4647;48.072;11.616;2024-03-02T14:15:28;10.70;;;9.60;;
9224;SDS011;4647;48.072;11.616;2024-03-02T14:17:57;10.00;;;9.00;;
9224;SDS011;4647;48.072;11.616;2024-03-02T14:20:25;10.40;;;9.30;;
9224;SDS011;4647;48.072;11.616;2024-03-02T14:22:53;10.67;;;8.90;;
9224;SDS011;4647;48.072;11.616;2024-03-02T14:25:22;13.67;;;9.87;;
9224;SDS011;4647;48.072;11.616;2024-03-02T14:27:50;11.80;;;9.77;;
9224;SDS011;4647;48.072;11.616;2024-03-02T14:30:19;11.77;;;9.17;;
9224;SDS011;4647;48.072;11.616;2024-03-02T14:32:50;10.17;;;8.47;;
9224;SDS011;4647;48.072;11.616;2024-03-02T14:35:18;11.60;;;8.30;;
9224;SDS011;4647;48.072;11.616;2024-03-02T14:37:47;8.43;;;7.30;;
9224;SDS011;4647;48.072;11.616;2024-03-02T14:40:16;8.27;;;7.10;;
9224;SDS011;4647;48.072;11.616;2024-03-02T14:42:45;9.97;;;8.03;;
9224;SDS011;4647;48.072;11.616;2024-03-02T14:45:14;8.23;;;7.30;;
9224;SDS011;4647;48.072;11.616;2024-03-02T14:47:42;8.77;;;7.87;;
9224;SDS011;4647;48.072;11.616;2024-03-02T14:50:14;10.07;;;9.00;;
9224;SDS011;4647;48.072;11.616;2024-03-02T14:52:43;10.20;;;9.10;;
9224;SDS011;4647;48.072;11.616;2024-03-02T14:55:12;9.53;;;8.63;;